CKS58 TNCM-SVMI
Flight info
| Callsign | CKS58 |
|---|---|
| Flight time | 0h 57m |
| Altitude | 36000 |
| Route | BOPAT2 DANDE M576 RAYAS/N0485F350 M423 KIKER UM414 TOSOS UN779 MIDUR PULPO1 |
| Aircraft | B77L/H-SDE1E2E3FGHIJ2J3J4J5M1RWXY/LB1D1 |
Departure
| Time | 2026-05-04 22:16 |
|---|---|
| Airport | Princess Juliana International Airport (TNCM) |
Arrival
| Time | 2026-05-04 23:14 |
|---|---|
| Airport | Maiquetía Simón Bolívar International Airport (SVMI) |
| Time | Latitude | Longitude | Altitude | Speed | Heading |
|---|---|---|---|---|---|
| 2026-05-04 21:44 | 18.04301 | -63.11498 | 30 ft | 0 kts | 348° |
| 2026-05-04 22:01 | 18.04296 | -63.11497 | 30 ft | 4 kts | 348° |
| 2026-05-04 22:01 | 18.04270 | -63.11492 | 30 ft | 4 kts | 351° |
| 2026-05-04 22:01 | 18.04249 | -63.11488 | 31 ft | 4 kts | 342° |
| 2026-05-04 22:02 | 18.04229 | -63.11476 | 31 ft | 4 kts | 296° |
| 2026-05-04 22:02 | 18.04226 | -63.11453 | 31 ft | 4 kts | 261° |
| 2026-05-04 22:02 | 18.04230 | -63.11427 | 31 ft | 2 kts | 261° |
| 2026-05-04 22:02 | 18.04230 | -63.11425 | 31 ft | 0 kts | 261° |
| 2026-05-04 22:07 | 18.04227 | -63.11446 | 31 ft | 14 kts | 261° |
| 2026-05-04 22:07 | 18.04156 | -63.11563 | 30 ft | 20 kts | 231° |
| 2026-05-04 22:08 | 18.04083 | -63.11649 | 31 ft | 0 kts | 208° |
| 2026-05-04 22:12 | 18.04076 | -63.11652 | 31 ft | 7 kts | 200° |
| 2026-05-04 22:12 | 18.03983 | -63.11683 | 28 ft | 18 kts | 246° |
| 2026-05-04 22:12 | 18.03972 | -63.11845 | 28 ft | 26 kts | 283° |
| 2026-05-04 22:12 | 18.03966 | -63.11949 | 26 ft | 7 kts | 163° |
| 2026-05-04 22:13 | 18.03951 | -63.11900 | 28 ft | 8 kts | 87° |
| 2026-05-04 22:13 | 18.03951 | -63.11895 | 28 ft | 0 kts | 85° |
| 2026-05-04 22:15 | 18.03952 | -63.11883 | 28 ft | 19 kts | 84° |
| 2026-05-04 22:16 | 18.04026 | -63.11350 | 29 ft | 127 kts | 82° |
| 2026-05-04 22:16 | 18.04135 | -63.10588 | 56 ft | 189 kts | 82° |
| 2026-05-04 22:16 | 18.04315 | -63.08619 | 1199 ft | 198 kts | 104° |
| 2026-05-04 22:16 | 18.03627 | -63.07370 | 2010 ft | 212 kts | 140° |
| 2026-05-04 22:17 | 18.02171 | -63.06853 | 2392 ft | 238 kts | 181° |
| 2026-05-04 22:17 | 18.00597 | -63.07533 | 3126 ft | 258 kts | 218° |
| 2026-05-04 22:17 | 17.99427 | -63.09015 | 3950 ft | 271 kts | 233° |
| 2026-05-04 22:17 | 17.98399 | -63.10704 | 4873 ft | 277 kts | 235° |
| 2026-05-04 22:18 | 17.97359 | -63.12424 | 5812 ft | 281 kts | 234° |
| 2026-05-04 22:18 | 17.96281 | -63.14148 | 6735 ft | 285 kts | 233° |
| 2026-05-04 22:18 | 17.95176 | -63.15855 | 7605 ft | 287 kts | 233° |
| 2026-05-04 22:18 | 17.94028 | -63.17580 | 8549 ft | 289 kts | 232° |
| 2026-05-04 22:19 | 17.92862 | -63.19302 | 9501 ft | 290 kts | 233° |
| 2026-05-04 22:19 | 17.91685 | -63.21029 | 10388 ft | 293 kts | 233° |
| 2026-05-04 22:19 | 17.90451 | -63.22829 | 10863 ft | 311 kts | 232° |
| 2026-05-04 22:19 | 17.89009 | -63.24613 | 11049 ft | 338 kts | 226° |
| 2026-05-04 22:20 | 17.87286 | -63.26479 | 11249 ft | 364 kts | 224° |
| 2026-05-04 22:20 | 17.85452 | -63.28408 | 11731 ft | 380 kts | 224° |
| 2026-05-04 22:20 | 17.83566 | -63.30401 | 12380 ft | 389 kts | 225° |
| 2026-05-04 22:20 | 17.81656 | -63.32442 | 13146 ft | 395 kts | 225° |
| 2026-05-04 22:21 | 17.79756 | -63.34490 | 13912 ft | 399 kts | 225° |
| 2026-05-04 22:21 | 17.77816 | -63.36597 | 14609 ft | 403 kts | 225° |
| 2026-05-04 22:21 | 17.75865 | -63.38724 | 15344 ft | 406 kts | 226° |
| 2026-05-04 22:21 | 17.73901 | -63.40869 | 16076 ft | 410 kts | 226° |
| 2026-05-04 22:22 | 17.71919 | -63.43035 | 16774 ft | 413 kts | 227° |
| 2026-05-04 22:22 | 17.69919 | -63.45221 | 17476 ft | 417 kts | 227° |
| 2026-05-04 22:22 | 17.67903 | -63.47422 | 18169 ft | 420 kts | 227° |
| 2026-05-04 22:22 | 17.65866 | -63.49646 | 18757 ft | 424 kts | 227° |
| 2026-05-04 22:23 | 17.63809 | -63.51890 | 19302 ft | 429 kts | 227° |
| 2026-05-04 22:23 | 17.61731 | -63.54156 | 19847 ft | 434 kts | 227° |
| 2026-05-04 22:23 | 17.59629 | -63.56447 | 20367 ft | 439 kts | 226° |
| 2026-05-04 22:23 | 17.57500 | -63.58766 | 20883 ft | 443 kts | 226° |
| 2026-05-04 22:24 | 17.56054 | -63.60342 | 21230 ft | 447 kts | 226° |
| 2026-05-04 22:24 | 17.53884 | -63.62705 | 21677 ft | 453 kts | 225° |
| 2026-05-04 22:24 | 17.51685 | -63.65098 | 22127 ft | 459 kts | 225° |
| 2026-05-04 22:24 | 17.49456 | -63.67511 | 22643 ft | 462 kts | 224° |
| 2026-05-04 22:25 | 17.47170 | -63.69882 | 23198 ft | 465 kts | 223° |
| 2026-05-04 22:25 | 17.44829 | -63.72244 | 23692 ft | 468 kts | 223° |
| 2026-05-04 22:25 | 17.42464 | -63.74612 | 24113 ft | 472 kts | 222° |
| 2026-05-04 22:25 | 17.40092 | -63.76993 | 24531 ft | 475 kts | 223° |
| 2026-05-04 22:26 | 17.37704 | -63.79400 | 24947 ft | 478 kts | 223° |
| 2026-05-04 22:26 | 17.35333 | -63.81799 | 25315 ft | 482 kts | 223° |
| 2026-05-04 22:26 | 17.32921 | -63.84245 | 25748 ft | 484 kts | 223° |
| 2026-05-04 22:26 | 17.30461 | -63.86742 | 26126 ft | 488 kts | 224° |
| 2026-05-04 22:27 | 17.28052 | -63.89187 | 26551 ft | 490 kts | 224° |
| 2026-05-04 22:27 | 17.25594 | -63.91681 | 26884 ft | 495 kts | 224° |
| 2026-05-04 22:27 | 17.23115 | -63.94193 | 27274 ft | 497 kts | 224° |
| 2026-05-04 22:27 | 17.20623 | -63.96718 | 27685 ft | 500 kts | 224° |
| 2026-05-04 22:28 | 17.18120 | -63.99252 | 28109 ft | 502 kts | 224° |
| 2026-05-04 22:28 | 17.15606 | -64.01796 | 28480 ft | 505 kts | 225° |
| 2026-05-04 22:28 | 17.13078 | -64.04356 | 28882 ft | 507 kts | 225° |
| 2026-05-04 22:28 | 17.10538 | -64.06927 | 29216 ft | 510 kts | 225° |
| 2026-05-04 22:29 | 17.07984 | -64.09513 | 29564 ft | 512 kts | 225° |
| 2026-05-04 22:29 | 17.05428 | -64.12099 | 29993 ft | 512 kts | 225° |
| 2026-05-04 22:29 | 17.02875 | -64.14682 | 30494 ft | 509 kts | 225° |
| 2026-05-04 22:29 | 17.00335 | -64.17251 | 30992 ft | 506 kts | 225° |
| 2026-05-04 22:30 | 16.97810 | -64.19803 | 31490 ft | 504 kts | 225° |
| 2026-05-04 22:30 | 16.95294 | -64.22347 | 31926 ft | 503 kts | 225° |
| 2026-05-04 22:30 | 16.92782 | -64.24884 | 32388 ft | 501 kts | 225° |
| 2026-05-04 22:30 | 16.90277 | -64.27414 | 32869 ft | 499 kts | 225° |
| 2026-05-04 22:31 | 16.87785 | -64.29930 | 33316 ft | 498 kts | 226° |
| 2026-05-04 22:31 | 16.85301 | -64.32436 | 33767 ft | 496 kts | 226° |
| 2026-05-04 22:31 | 16.82823 | -64.34936 | 34182 ft | 495 kts | 226° |
| 2026-05-04 22:31 | 16.80351 | -64.37428 | 34581 ft | 492 kts | 226° |
| 2026-05-04 22:32 | 16.77898 | -64.39900 | 35041 ft | 489 kts | 226° |
| 2026-05-04 22:32 | 16.75459 | -64.42357 | 35437 ft | 486 kts | 226° |
| 2026-05-04 22:32 | 16.73031 | -64.44802 | 35803 ft | 485 kts | 226° |
| 2026-05-04 22:32 | 16.70593 | -64.47258 | 35959 ft | 489 kts | 226° |
| 2026-05-04 22:33 | 16.68135 | -64.49734 | 35995 ft | 492 kts | 226° |
| 2026-05-04 22:33 | 16.63215 | -64.54682 | 36016 ft | 489 kts | 226° |
| 2026-05-04 22:34 | 16.58345 | -64.59575 | 36021 ft | 485 kts | 226° |
| 2026-05-04 22:34 | 16.53464 | -64.64478 | 36025 ft | 483 kts | 226° |
| 2026-05-04 22:35 | 16.48656 | -64.69304 | 36023 ft | 483 kts | 226° |
| 2026-05-04 22:35 | 16.37466 | -64.80522 | 36032 ft | 485 kts | 226° |
| 2026-05-04 22:36 | 15.98386 | -65.19465 | 36035 ft | 488 kts | 226° |
| 2026-05-04 22:36 | 15.54955 | -65.50294 | 35940 ft | 501 kts | 169° |
| 2026-05-04 22:36 | 15.43056 | -65.43899 | 36028 ft | 500 kts | 136° |
| 2026-05-04 22:37 | 15.40528 | -65.41421 | 36005 ft | 501 kts | 139° |
| 2026-05-04 22:37 | 15.34667 | -65.37572 | 36001 ft | 500 kts | 158° |
| 2026-05-04 22:38 | 15.28073 | -65.35297 | 36013 ft | 500 kts | 165° |
| 2026-05-04 22:38 | 15.21373 | -65.33300 | 36002 ft | 502 kts | 163° |
| 2026-05-04 22:39 | 15.14703 | -65.31141 | 35997 ft | 500 kts | 166° |
| 2026-05-04 22:39 | 15.11276 | -65.30622 | 35995 ft | 498 kts | 182° |
| 2026-05-04 22:39 | 15.07851 | -65.31019 | 36009 ft | 495 kts | 194° |
| 2026-05-04 22:39 | 15.04617 | -65.32191 | 35982 ft | 490 kts | 209° |
| 2026-05-04 22:40 | 14.99315 | -65.35278 | 36022 ft | 490 kts | 212° |
| 2026-05-04 22:40 | 14.50908 | -65.62935 | 36059 ft | 503 kts | 210° |
| 2026-05-04 22:41 | 14.02120 | -65.90470 | 35895 ft | 491 kts | 211° |
| 2026-05-04 22:41 | 13.54633 | -66.17192 | 36016 ft | 489 kts | 211° |
| 2026-05-04 22:42 | 13.05956 | -66.44448 | 36019 ft | 505 kts | 211° |
| 2026-05-04 22:42 | 12.81355 | -66.58175 | 35917 ft | 501 kts | 211° |
| 2026-05-04 22:42 | 12.76975 | -66.60615 | 35902 ft | 500 kts | 211° |
| 2026-05-04 22:44 | 12.74680 | -66.61895 | 35802 ft | 499 kts | 210° |
| 2026-05-04 22:44 | 12.68657 | -66.65248 | 35934 ft | 490 kts | 211° |
| 2026-05-04 22:45 | 12.62652 | -66.68593 | 35952 ft | 492 kts | 211° |
| 2026-05-04 22:45 | 12.56571 | -66.71979 | 35106 ft | 499 kts | 211° |
| 2026-05-04 22:45 | 12.53533 | -66.73667 | 34606 ft | 494 kts | 211° |
| 2026-05-04 22:46 | 12.50522 | -66.75341 | 34100 ft | 490 kts | 211° |
| 2026-05-04 22:46 | 12.47531 | -66.77003 | 33555 ft | 487 kts | 211° |
| 2026-05-04 22:46 | 12.44569 | -66.78650 | 33031 ft | 483 kts | 211° |
| 2026-05-04 22:46 | 12.41633 | -66.80281 | 32526 ft | 479 kts | 211° |
| 2026-05-04 22:47 | 12.38720 | -66.81899 | 32036 ft | 475 kts | 211° |
| 2026-05-04 22:47 | 12.35764 | -66.83378 | 31545 ft | 473 kts | 204° |
| 2026-05-04 22:47 | 12.32650 | -66.84449 | 31079 ft | 471 kts | 197° |
| 2026-05-04 22:47 | 12.29454 | -66.85173 | 30591 ft | 470 kts | 191° |
| 2026-05-04 22:48 | 12.26209 | -66.85523 | 30115 ft | 468 kts | 186° |
| 2026-05-04 22:48 | 12.22967 | -66.85767 | 29572 ft | 466 kts | 186° |
| 2026-05-04 22:48 | 12.19744 | -66.85999 | 29059 ft | 462 kts | 186° |
| 2026-05-04 22:48 | 12.16551 | -66.86235 | 28565 ft | 459 kts | 186° |
| 2026-05-04 22:49 | 12.13378 | -66.86482 | 28097 ft | 455 kts | 186° |
| 2026-05-04 22:49 | 12.10236 | -66.86737 | 27626 ft | 451 kts | 186° |
| 2026-05-04 22:49 | 12.07116 | -66.86995 | 27172 ft | 448 kts | 186° |
| 2026-05-04 22:49 | 12.04021 | -66.87253 | 26720 ft | 445 kts | 186° |
| 2026-05-04 22:50 | 12.00944 | -66.87512 | 26283 ft | 442 kts | 186° |
| 2026-05-04 22:50 | 11.97891 | -66.87767 | 25839 ft | 439 kts | 186° |
| 2026-05-04 22:50 | 11.94853 | -66.88021 | 25390 ft | 437 kts | 186° |
| 2026-05-04 22:50 | 11.91832 | -66.88273 | 24944 ft | 435 kts | 186° |
| 2026-05-04 22:51 | 11.86275 | -66.88736 | 24165 ft | 430 kts | 186° |
| 2026-05-04 22:51 | 11.80914 | -66.89182 | 23432 ft | 425 kts | 186° |
| 2026-05-04 22:51 | 11.78041 | -66.89736 | 22844 ft | 419 kts | 203° |
| 2026-05-04 22:51 | 11.75541 | -66.91151 | 22428 ft | 407 kts | 218° |
| 2026-05-04 22:52 | 11.73240 | -66.92816 | 22020 ft | 404 kts | 217° |
| 2026-05-04 22:52 | 11.70940 | -66.94446 | 21599 ft | 402 kts | 216° |
| 2026-05-04 22:52 | 11.68639 | -66.96057 | 21180 ft | 400 kts | 215° |
| 2026-05-04 22:52 | 11.66347 | -66.97650 | 20789 ft | 398 kts | 214° |
| 2026-05-04 22:53 | 11.64058 | -66.99235 | 20381 ft | 397 kts | 213° |
| 2026-05-04 22:53 | 11.61805 | -67.00792 | 19991 ft | 395 kts | 213° |
| 2026-05-04 22:53 | 11.59532 | -67.02361 | 19575 ft | 395 kts | 212° |
| 2026-05-04 22:53 | 11.57260 | -67.03928 | 19167 ft | 394 kts | 212° |
| 2026-05-04 22:54 | 11.54990 | -67.05493 | 18749 ft | 394 kts | 212° |
| 2026-05-04 22:54 | 11.52720 | -67.07059 | 18335 ft | 393 kts | 211° |
| 2026-05-04 22:54 | 11.50454 | -67.08621 | 17869 ft | 393 kts | 211° |
| 2026-05-04 22:54 | 11.48192 | -67.10180 | 17431 ft | 392 kts | 211° |
| 2026-05-04 22:55 | 11.45939 | -67.11734 | 17014 ft | 390 kts | 211° |
| 2026-05-04 22:55 | 11.43693 | -67.13282 | 16586 ft | 389 kts | 211° |
| 2026-05-04 22:55 | 11.41456 | -67.14823 | 16163 ft | 388 kts | 211° |
| 2026-05-04 22:55 | 11.39225 | -67.16361 | 15750 ft | 387 kts | 211° |
| 2026-05-04 22:56 | 11.36996 | -67.17897 | 15329 ft | 386 kts | 211° |
| 2026-05-04 22:56 | 11.34775 | -67.19427 | 14913 ft | 385 kts | 211° |
| 2026-05-04 22:56 | 11.32555 | -67.20937 | 14472 ft | 380 kts | 208° |
| 2026-05-04 22:56 | 11.30149 | -67.21923 | 14063 ft | 370 kts | 187° |
| 2026-05-04 22:57 | 11.27621 | -67.22047 | 13653 ft | 361 kts | 174° |
| 2026-05-04 22:57 | 11.25115 | -67.21959 | 13202 ft | 360 kts | 175° |
| 2026-05-04 22:57 | 11.22609 | -67.21880 | 12776 ft | 360 kts | 175° |
| 2026-05-04 22:57 | 11.20112 | -67.21807 | 12360 ft | 359 kts | 175° |
| 2026-05-04 22:58 | 11.17619 | -67.21739 | 11950 ft | 358 kts | 175° |
| 2026-05-04 22:58 | 11.15136 | -67.21676 | 11539 ft | 357 kts | 175° |
| 2026-05-04 22:58 | 11.12659 | -67.21616 | 11165 ft | 355 kts | 175° |
| 2026-05-04 22:58 | 11.10192 | -67.21559 | 10776 ft | 354 kts | 176° |
| 2026-05-04 22:59 | 11.07746 | -67.21503 | 10522 ft | 348 kts | 176° |
| 2026-05-04 22:59 | 11.05351 | -67.21450 | 10370 ft | 340 kts | 176° |
| 2026-05-04 22:59 | 11.03010 | -67.21398 | 10217 ft | 332 kts | 176° |
| 2026-05-04 22:59 | 11.00729 | -67.21347 | 10072 ft | 324 kts | 175° |
| 2026-05-04 23:00 | 10.98484 | -67.21296 | 9833 ft | 320 kts | 176° |
| 2026-05-04 23:00 | 10.96279 | -67.21245 | 9651 ft | 313 kts | 176° |
| 2026-05-04 23:00 | 10.94146 | -67.21197 | 9543 ft | 300 kts | 176° |
| 2026-05-04 23:00 | 10.92105 | -67.21152 | 9448 ft | 287 kts | 175° |
| 2026-05-04 23:01 | 10.90138 | -67.21108 | 9226 ft | 279 kts | 175° |
| 2026-05-04 23:01 | 10.88224 | -67.21065 | 8991 ft | 272 kts | 175° |
| 2026-05-04 23:01 | 10.86341 | -67.21023 | 8612 ft | 269 kts | 178° |
| 2026-05-04 23:01 | 10.84501 | -67.21388 | 8074 ft | 277 kts | 205° |
| 2026-05-04 23:02 | 10.83019 | -67.22632 | 7699 ft | 278 kts | 231° |
| 2026-05-04 23:02 | 10.81948 | -67.24260 | 7317 ft | 277 kts | 235° |
| 2026-05-04 23:02 | 10.80916 | -67.25912 | 6967 ft | 276 kts | 234° |
| 2026-05-04 23:02 | 10.79893 | -67.27550 | 6676 ft | 272 kts | 235° |
| 2026-05-04 23:03 | 10.78883 | -67.29165 | 6363 ft | 269 kts | 235° |
| 2026-05-04 23:03 | 10.77883 | -67.30757 | 6043 ft | 266 kts | 235° |
| 2026-05-04 23:03 | 10.76886 | -67.32340 | 5669 ft | 265 kts | 235° |
| 2026-05-04 23:03 | 10.75889 | -67.33919 | 5267 ft | 266 kts | 235° |
| 2026-05-04 23:04 | 10.74890 | -67.35497 | 4903 ft | 265 kts | 236° |
| 2026-05-04 23:04 | 10.73893 | -67.37071 | 4534 ft | 264 kts | 236° |
| 2026-05-04 23:04 | 10.72900 | -67.38638 | 4181 ft | 262 kts | 236° |
| 2026-05-04 23:04 | 10.71702 | -67.39992 | 4065 ft | 260 kts | 210° |
| 2026-05-04 23:05 | 10.69991 | -67.40545 | 4052 ft | 262 kts | 179° |
| 2026-05-04 23:05 | 10.68242 | -67.40161 | 4046 ft | 258 kts | 152° |
| 2026-05-04 23:05 | 10.66848 | -67.39055 | 4044 ft | 254 kts | 129° |
| 2026-05-04 23:05 | 10.65788 | -67.37624 | 4055 ft | 254 kts | 126° |
| 2026-05-04 23:06 | 10.65099 | -67.36663 | 4061 ft | 254 kts | 126° |
| 2026-05-04 23:06 | 10.64057 | -67.35206 | 4045 ft | 255 kts | 126° |
| 2026-05-04 23:06 | 10.63007 | -67.33749 | 4045 ft | 256 kts | 126° |
| 2026-05-04 23:06 | 10.61954 | -67.32296 | 4037 ft | 255 kts | 126° |
| 2026-05-04 23:07 | 10.60896 | -67.30846 | 4033 ft | 255 kts | 126° |
| 2026-05-04 23:07 | 10.59927 | -67.29398 | 4016 ft | 238 kts | 113° |
| 2026-05-04 23:07 | 10.59624 | -67.27850 | 4018 ft | 213 kts | 92° |
| 2026-05-04 23:07 | 10.59600 | -67.26369 | 4073 ft | 206 kts | 91° |
| 2026-05-04 23:08 | 10.59613 | -67.24951 | 4045 ft | 195 kts | 89° |
| 2026-05-04 23:08 | 10.59647 | -67.23635 | 4025 ft | 178 kts | 89° |
| 2026-05-04 23:08 | 10.59684 | -67.22426 | 4038 ft | 165 kts | 89° |
| 2026-05-04 23:08 | 10.59721 | -67.21286 | 3998 ft | 162 kts | 89° |
| 2026-05-04 23:09 | 10.59758 | -67.20138 | 3824 ft | 162 kts | 89° |
| 2026-05-04 23:09 | 10.59795 | -67.19000 | 3624 ft | 161 kts | 88° |
| 2026-05-04 23:09 | 10.59832 | -67.17870 | 3443 ft | 160 kts | 88° |
| 2026-05-04 23:09 | 10.59869 | -67.16734 | 3235 ft | 160 kts | 88° |
| 2026-05-04 23:10 | 10.59906 | -67.15612 | 3005 ft | 157 kts | 88° |
| 2026-05-04 23:10 | 10.59942 | -67.14525 | 2760 ft | 152 kts | 88° |
| 2026-05-04 23:10 | 10.59977 | -67.13449 | 2560 ft | 153 kts | 88° |
| 2026-05-04 23:10 | 10.60012 | -67.12366 | 2352 ft | 154 kts | 87° |
| 2026-05-04 23:11 | 10.60049 | -67.11272 | 2137 ft | 154 kts | 88° |
| 2026-05-04 23:11 | 10.60082 | -67.10189 | 1932 ft | 153 kts | 88° |
| 2026-05-04 23:11 | 10.60118 | -67.09116 | 1730 ft | 151 kts | 88° |
| 2026-05-04 23:11 | 10.60153 | -67.08045 | 1536 ft | 152 kts | 88° |
| 2026-05-04 23:12 | 10.60188 | -67.06972 | 1337 ft | 151 kts | 88° |
| 2026-05-04 23:12 | 10.60223 | -67.05904 | 1129 ft | 152 kts | 88° |
| 2026-05-04 23:12 | 10.60246 | -67.04829 | 951 ft | 150 kts | 88° |
| 2026-05-04 23:12 | 10.60297 | -67.03770 | 773 ft | 150 kts | 88° |
| 2026-05-04 23:13 | 10.60324 | -67.02715 | 570 ft | 150 kts | 88° |
| 2026-05-04 23:13 | 10.60366 | -67.01654 | 396 ft | 148 kts | 88° |
| 2026-05-04 23:13 | 10.60392 | -67.00665 | 218 ft | 128 kts | 87° |
| 2026-05-04 23:13 | 10.60417 | -66.99924 | 202 ft | 93 kts | 88° |
| 2026-05-04 23:14 | 10.60443 | -66.99318 | 190 ft | 79 kts | 90° |
| 2026-05-04 23:14 | 10.60450 | -66.99002 | 184 ft | 34 kts | 87° |
| 2026-05-04 23:14 | 10.60456 | -66.98768 | 181 ft | 32 kts | 87° |
| 2026-05-04 23:14 | 10.60432 | -66.98666 | 180 ft | 8 kts | 186° |
| 2026-05-04 23:15 | 10.60386 | -66.98712 | 180 ft | 15 kts | 234° |
| 2026-05-04 23:15 | 10.60287 | -66.98892 | 172 ft | 37 kts | 259° |
| 2026-05-04 23:15 | 10.60266 | -66.99103 | 174 ft | 17 kts | 224° |
| 2026-05-04 23:15 | 10.60150 | -66.99107 | 179 ft | 17 kts | 167° |
| 2026-05-04 23:16 | 10.60033 | -66.99076 | 182 ft | 18 kts | 167° |
| 2026-05-04 23:16 | 10.59919 | -66.99020 | 183 ft | 19 kts | 108° |
| 2026-05-04 23:16 | 10.59943 | -66.98882 | 185 ft | 21 kts | 76° |
| 2026-05-04 23:16 | 10.59981 | -66.98737 | 201 ft | 22 kts | 75° |
| 2026-05-04 23:17 | 10.60021 | -66.98587 | 199 ft | 22 kts | 73° |
| 2026-05-04 23:17 | 10.60086 | -66.98443 | 198 ft | 22 kts | 71° |
| 2026-05-04 23:17 | 10.60111 | -66.98327 | 208 ft | 6 kts | 125° |
| 2026-05-04 23:17 | 10.60060 | -66.98332 | 203 ft | 5 kts | 209° |
| 2026-05-04 23:18 | 10.60054 | -66.98336 | 206 ft | 0 kts | 214° |
| 2026-05-04 23:19 | 10.60040 | -66.98345 | 203 ft | 0 kts | 234° |